Time,TemperatureF,DewpointF,PressureIn,WindDirection,WindDirectionDegrees,WindSpeedMPH,WindSpeedGustMPH,Humidity,HourlyPrecipIn,Conditions,Clouds,dailyrainin,SoftwareType,DateUTC
2013-04-30 00:00:00,55.0,54.0,30.04,ESE,105,0.0,1.0,96,0.00,,,0.00,meteohub,2013-04-30 04:00:00,
2013-04-30 00:01:00,55.0,54.0,30.03,ESE,105,0.0,1.0,96,0.00,,,0.00,meteohub,2013-04-30 04:01:00,
2013-04-30 00:02:00,55.0,54.0,30.03,ESE,105,0.0,1.0,96,0.00,,,0.00,meteohub,2013-04-30 04:02:00,
2013-04-30 00:07:00,55.0,54.0,30.04,ESE,105,0.0,1.0,96,0.00,,,0.00,meteohub,2013-04-30 04:07:00,
2013-04-30 00:12:00,55.0,54.0,30.04,ESE,105,0.0,1.0,96,0.00,,,0.00,meteohub,2013-04-30 04:12:00,
2013-04-30 00:17:00,54.9,53.8,30.04,ESE,105,0.0,0.0,96,0.00,,,0.00,meteohub,2013-04-30 04:17:00,
2013-04-30 00:22:00,54.9,53.8,30.04,ESE,105,0.0,0.0,96,0.00,,,0.00,meteohub,2013-04-30 04:22:00,
2013-04-30 00:27:00,54.7,53.6,30.04,ESE,105,0.0,0.0,96,0.00,,,0.00,meteohub,2013-04-30 04:27:00,
2013-04-30 00:32:00,54.7,53.6,30.04,ESE,105,0.0,0.0,96,0.00,,,0.00,meteohub,2013-04-30 04:32:00,
2013-04-30 00:37:00,54.3,53.2,30.04,ESE,105,0.0,0.0,96,0.00,,,0.00,meteohub,2013-04-30 04:37:00,
2013-04-30 00:42:00,54.1,53.1,30.04,ESE,105,0.0,0.0,96,0.00,,,0.00,meteohub,2013-04-30 04:42:00,
2013-04-30 00:47:00,54.0,52.9,30.04,ESE,105,0.0,0.0,96,0.00,,,0.00,meteohub,2013-04-30 04:47:00,
2013-04-30 00:52:00,54.0,52.9,30.04,ESE,105,0.0,0.0,96,0.00,,,0.00,meteohub,2013-04-30 04:52:00,
2013-04-30 00:57:00,53.8,52.7,30.04,ESE,105,0.0,0.0,96,0.00,,,0.00,meteohub,2013-04-30 04:57:00,
2013-04-30 01:02:00,53.6,52.5,30.04,ESE,105,0.0,0.0,96,0.00,,,0.00,meteohub,2013-04-30 05:02:00,
2013-04-30 01:07:00,53.6,52.5,30.04,ESE,105,0.0,0.0,96,0.00,,,0.00,meteohub,2013-04-30 05:07:00,
2013-04-30 01:12:00,53.4,52.3,30.04,ESE,105,0.0,0.0,96,0.00,,,0.00,meteohub,2013-04-30 05:12:00,
2013-04-30 01:17:00,53.2,52.2,30.04,ESE,105,0.0,1.0,96,0.00,,,0.00,meteohub,2013-04-30 05:17:00,
2013-04-30 01:22:00,53.2,52.2,30.04,ESE,105,0.0,1.0,96,0.00,,,0.00,meteohub,2013-04-30 05:22:00,
2013-04-30 01:27:00,53.1,52.0,30.04,ESE,105,0.0,0.0,96,0.00,,,0.00,meteohub,2013-04-30 05:27:00,
2013-04-30 01:32:00,52.9,51.8,30.05,ESE,105,0.0,0.0,96,0.00,,,0.00,meteohub,2013-04-30 05:32:00,
2013-04-30 01:37:00,52.7,51.6,30.04,ESE,105,0.0,0.0,96,0.00,,,0.00,meteohub,2013-04-30 05:37:00,
2013-04-30 01:42:00,52.5,51.4,30.05,ESE,105,0.0,0.0,96,0.00,,,0.00,meteohub,2013-04-30 05:42:00,
2013-04-30 01:47:00,52.5,51.4,30.05,ESE,105,0.0,0.0,96,0.00,,,0.00,meteohub,2013-04-30 05:47:00,
2013-04-30 01:52:00,52.3,51.3,30.05,ESE,105,0.0,0.0,96,0.00,,,0.00,meteohub,2013-04-30 05:52:00,
2013-04-30 01:57:00,52.3,51.3,30.05,ESE,105,0.0,0.0,96,0.00,,,0.00,meteohub,2013-04-30 05:57:00,
2013-04-30 02:02:00,52.3,51.3,30.05,ESE,105,0.0,0.0,96,0.00,,,0.00,meteohub,2013-04-30 06:02:00,
2013-04-30 02:07:00,52.2,51.1,30.05,ESE,105,0.0,0.0,96,0.00,,,0.00,meteohub,2013-04-30 06:07:00,
2013-04-30 02:12:00,52.0,51.1,30.05,ESE,105,0.0,0.0,97,0.00,,,0.00,meteohub,2013-04-30 06:12:00,
2013-04-30 02:17:00,52.0,51.1,30.05,ESE,105,0.0,0.0,97,0.00,,,0.00,meteohub,2013-04-30 06:17:00,
2013-04-30 02:22:00,51.8,50.9,30.05,ESE,105,0.0,0.0,97,0.00,,,0.00,meteohub,2013-04-30 06:22:00,
2013-04-30 02:27:00,51.6,50.5,30.05,ESE,105,0.0,0.0,96,0.00,,,0.00,meteohub,2013-04-30 06:27:00,
2013-04-30 02:32:00,51.4,50.5,30.05,ESE,105,0.0,0.0,97,0.00,,,0.00,meteohub,2013-04-30 06:32:00,
2013-04-30 02:37:00,51.4,50.5,30.05,ESE,105,0.0,0.0,97,0.00,,,0.00,meteohub,2013-04-30 06:37:00,
2013-04-30 02:42:00,51.3,50.4,30.05,ESE,105,0.0,0.0,97,0.00,,,0.00,meteohub,2013-04-30 06:42:00,
2013-04-30 02:47:00,51.3,50.4,30.05,ESE,105,0.0,0.0,97,0.00,,,0.00,meteohub,2013-04-30 06:47:00,
2013-04-30 02:52:00,51.1,50.2,30.06,ESE,105,0.0,0.0,97,0.00,,,0.00,meteohub,2013-04-30 06:52:00,
2013-04-30 02:57:00,51.1,50.2,30.05,ESE,105,0.0,0.0,97,0.00,,,0.00,meteohub,2013-04-30 06:57:00,
2013-04-30 03:02:00,51.1,50.2,30.06,ESE,105,0.0,0.0,97,0.00,,,0.00,meteohub,2013-04-30 07:02:00,
2013-04-30 03:07:00,50.9,50.0,30.06,ESE,105,0.0,0.0,97,0.00,,,0.00,meteohub,2013-04-30 07:07:00,
2013-04-30 03:12:00,50.9,50.0,30.06,ESE,105,0.0,0.0,97,0.00,,,0.00,meteohub,2013-04-30 07:12:00,
2013-04-30 03:17:00,50.7,49.8,30.06,ESE,105,0.0,0.0,97,0.00,,,0.00,meteohub,2013-04-30 07:17:00,
2013-04-30 03:22:00,50.5,49.6,30.06,ESE,105,0.0,0.0,97,0.00,,,0.00,meteohub,2013-04-30 07:22:00,
2013-04-30 03:27:00,50.4,49.5,30.06,ESE,105,0.0,0.0,97,0.00,,,0.00,meteohub,2013-04-30 07:27:00,
2013-04-30 03:32:00,50.2,49.3,30.06,ESE,105,0.0,0.0,97,0.00,,,0.00,meteohub,2013-04-30 07:32:00,
2013-04-30 03:37:00,50.2,49.3,30.06,ESE,105,0.0,0.0,97,0.00,,,0.00,meteohub,2013-04-30 07:37:00,
2013-04-30 03:42:00,49.8,48.9,30.06,ESE,105,0.0,0.0,97,0.00,,,0.00,meteohub,2013-04-30 07:42:00,
2013-04-30 03:47:00,49.6,48.7,30.06,ESE,105,0.0,0.0,97,0.00,,,0.00,meteohub,2013-04-30 07:47:00,
2013-04-30 03:52:00,49.8,48.9,30.07,ESE,105,0.0,0.0,97,0.00,,,0.00,meteohub,2013-04-30 07:52:00,
2013-04-30 03:58:00,49.8,48.9,30.07,ESE,105,0.0,0.0,97,0.00,,,0.00,meteohub,2013-04-30 07:58:00,
2013-04-30 04:03:00,49.8,48.9,30.07,ESE,105,0.0,0.0,97,0.00,,,0.00,meteohub,2013-04-30 08:03:00,
2013-04-30 04:08:00,49.6,48.7,30.07,ESE,105,0.0,0.0,97,0.00,,,0.00,meteohub,2013-04-30 08:08:00,
2013-04-30 04:14:00,49.5,48.6,30.07,ESE,105,0.0,0.0,97,0.00,,,0.00,meteohub,2013-04-30 08:14:00,
2013-04-30 04:19:00,49.3,48.4,30.08,ESE,105,0.0,0.0,97,0.00,,,0.00,meteohub,2013-04-30 08:19:00,
2013-04-30 04:24:00,49.3,48.4,30.08,ESE,105,0.0,0.0,97,0.00,,,0.00,meteohub,2013-04-30 08:24:00,
2013-04-30 04:29:00,49.3,48.4,30.08,ESE,105,0.0,0.0,97,0.00,,,0.00,meteohub,2013-04-30 08:29:00,
2013-04-30 04:35:00,49.3,48.4,30.08,ESE,105,0.0,0.0,97,0.00,,,0.00,meteohub,2013-04-30 08:35:00,
2013-04-30 04:40:00,49.3,48.4,30.08,ESE,105,0.0,0.0,97,0.00,,,0.00,meteohub,2013-04-30 08:40:00,
2013-04-30 04:45:00,49.3,48.4,30.08,ESE,105,0.0,0.0,97,0.00,,,0.00,meteohub,2013-04-30 08:45:00,
2013-04-30 04:51:00,49.3,48.4,30.08,ESE,105,0.0,0.0,97,0.00,,,0.00,meteohub,2013-04-30 08:51:00,
2013-04-30 04:56:00,49.1,48.2,30.08,ESE,105,0.0,0.0,97,0.00,,,0.00,meteohub,2013-04-30 08:56:00,
2013-04-30 05:01:00,48.9,48.0,30.09,ESE,105,0.0,0.0,97,0.00,,,0.00,meteohub,2013-04-30 09:01:00,
2013-04-30 05:06:00,48.7,47.8,30.09,ESE,105,0.0,0.0,97,0.00,,,0.00,meteohub,2013-04-30 09:06:00,
2013-04-30 05:12:00,48.7,47.8,30.09,ESE,105,0.0,0.0,97,0.00,,,0.00,meteohub,2013-04-30 09:12:00,
2013-04-30 05:17:00,48.6,47.7,30.09,ESE,105,0.0,0.0,97,0.00,,,0.00,meteohub,2013-04-30 09:17:00,
2013-04-30 05:22:00,48.6,47.7,30.09,ESE,105,0.0,0.0,97,0.00,,,0.00,meteohub,2013-04-30 09:22:00,
2013-04-30 05:27:00,48.7,47.8,30.09,ESE,105,0.0,0.0,97,0.00,,,0.00,meteohub,2013-04-30 09:27:00,
2013-04-30 05:32:00,48.7,47.8,30.09,ESE,105,0.0,0.0,97,0.00,,,0.00,meteohub,2013-04-30 09:32:00,
2013-04-30 05:37:00,48.7,47.8,30.09,ESE,105,0.0,0.0,97,0.00,,,0.00,meteohub,2013-04-30 09:37:00,
2013-04-30 05:42:00,48.6,47.7,30.09,ESE,105,0.0,0.0,97,0.00,,,0.00,meteohub,2013-04-30 09:42:00,
2013-04-30 05:47:00,48.6,47.7,30.09,ESE,105,0.0,0.0,97,0.00,,,0.00,meteohub,2013-04-30 09:47:00,
2013-04-30 05:52:00,48.7,47.8,30.09,ESE,105,0.0,1.0,97,0.00,,,0.00,meteohub,2013-04-30 09:52:00,
2013-04-30 05:57:00,49.1,48.2,30.09,SE,142,0.0,1.0,97,0.00,,,0.00,meteohub,2013-04-30 09:57:00,
2013-04-30 06:02:00,49.6,49.1,30.09,SW,218,0.0,4.0,98,0.00,,,0.00,meteohub,2013-04-30 10:02:00,
2013-04-30 06:07:00,50.0,49.5,30.09,SW,218,0.0,4.0,98,0.00,,,0.00,meteohub,2013-04-30 10:07:00,
2013-04-30 06:12:00,50.0,49.5,30.09,SW,218,0.0,4.0,98,0.00,,,0.00,meteohub,2013-04-30 10:12:00,
2013-04-30 06:17:00,50.4,49.8,30.09,SW,218,0.0,4.0,98,0.00,,,0.00,meteohub,2013-04-30 10:17:00,
2013-04-30 06:22:00,50.5,50.0,30.10,SW,218,0.0,3.0,98,0.00,,,0.00,meteohub,2013-04-30 10:22:00,
2013-04-30 06:27:00,50.5,50.0,30.10,SW,218,0.0,3.0,98,0.00,,,0.00,meteohub,2013-04-30 10:27:00,
2013-04-30 06:32:00,50.7,50.2,30.10,SW,218,0.0,3.0,98,0.00,,,0.00,meteohub,2013-04-30 10:32:00,
2013-04-30 06:37:00,51.3,50.7,30.10,SW,218,0.0,3.0,98,0.00,,,0.00,meteohub,2013-04-30 10:37:00,
2013-04-30 06:42:00,51.3,50.7,30.11,SW,218,0.0,3.0,98,0.00,,,0.00,meteohub,2013-04-30 10:42:00,
2013-04-30 06:47:00,51.4,50.9,30.11,SW,218,0.0,3.0,98,0.00,,,0.00,meteohub,2013-04-30 10:47:00,
2013-04-30 06:52:00,51.4,50.9,30.11,SW,218,0.0,3.0,98,0.00,,,0.00,meteohub,2013-04-30 10:52:00,
2013-04-30 06:57:00,52.0,51.4,30.11,SW,218,0.0,1.0,98,0.00,,,0.00,meteohub,2013-04-30 10:57:00,
2013-04-30 07:02:00,52.7,52.2,30.11,SSW,211,0.0,1.0,98,0.00,,,0.01,meteohub,2013-04-30 11:02:00,
2013-04-30 07:07:00,52.9,52.3,30.11,South,182,3.0,3.0,98,0.01,,,0.01,meteohub,2013-04-30 11:07:00,
2013-04-30 07:12:00,53.1,52.5,30.12,South,184,0.0,8.0,98,0.01,,,0.01,meteohub,2013-04-30 11:12:00,
2013-04-30 07:17:00,53.2,52.7,30.12,SE,131,0.0,8.0,98,0.01,,,0.01,meteohub,2013-04-30 11:17:00,
2013-04-30 07:22:00,53.4,52.9,30.12,SSW,213,8.0,8.0,98,0.01,,,0.01,meteohub,2013-04-30 11:22:00,
2013-04-30 07:27:00,53.8,53.2,30.12,SW,232,3.0,8.0,98,0.01,,,0.01,meteohub,2013-04-30 11:27:00,
2013-04-30 07:32:00,53.8,53.2,30.12,SSW,210,1.0,8.0,98,0.01,,,0.01,meteohub,2013-04-30 11:32:00,
2013-04-30 07:37:00,54.0,53.4,30.12,SSW,201,4.0,10.0,98,0.01,,,0.01,meteohub,2013-04-30 11:37:00,
2013-04-30 07:42:00,54.0,53.4,30.12,SSW,194,3.0,10.0,98,0.01,,,0.01,meteohub,2013-04-30 11:42:00,
2013-04-30 07:47:00,54.1,53.6,30.12,SSW,197,2.0,7.0,98,0.01,,,0.01,meteohub,2013-04-30 11:47:00,
2013-04-30 07:52:00,54.1,53.6,30.12,SSW,210,3.0,7.0,98,0.01,,,0.01,meteohub,2013-04-30 11:52:00,
2013-04-30 07:57:00,54.3,53.8,30.12,SSW,207,3.0,7.0,98,0.01,,,0.01,meteohub,2013-04-30 11:57:00,
2013-04-30 08:02:00,54.3,53.8,30.12,SSW,207,0.0,7.0,98,0.01,,,0.01,meteohub,2013-04-30 12:02:00,
2013-04-30 08:07:00,54.3,53.8,30.13,SSW,213,3.0,8.0,98,0.00,,,0.01,meteohub,2013-04-30 12:07:00,
2013-04-30 08:12:00,54.7,54.1,30.13,South,182,5.0,8.0,98,0.00,,,0.01,meteohub,2013-04-30 12:12:00,
2013-04-30 08:17:00,54.7,54.1,30.13,SW,221,6.0,9.0,98,0.00,,,0.01,meteohub,2013-04-30 12:17:00,
2013-04-30 08:22:00,54.9,54.3,30.13,SSW,198,2.0,9.0,98,0.00,,,0.01,meteohub,2013-04-30 12:22:00,
2013-04-30 08:27:00,55.0,54.5,30.13,SSW,201,5.0,9.0,98,0.00,,,0.01,meteohub,2013-04-30 12:27:00,
2013-04-30 08:32:00,55.2,54.7,30.13,SSE,163,7.0,9.0,98,0.00,,,0.01,meteohub,2013-04-30 12:32:00,
2013-04-30 08:37:00,55.4,54.5,30.13,WSW,240,7.0,8.0,97,0.00,,,0.01,meteohub,2013-04-30 12:37:00,
2013-04-30 08:42:00,55.8,54.7,30.13,WSW,244,8.0,8.0,96,0.00,,,0.01,meteohub,2013-04-30 12:42:00,
2013-04-30 08:47:00,56.1,54.5,30.13,SW,214,4.0,13.0,94,0.00,,,0.01,meteohub,2013-04-30 12:47:00,
2013-04-30 08:52:00,56.5,54.5,30.14,South,185,2.0,13.0,93,0.00,,,0.01,meteohub,2013-04-30 12:52:00,
2013-04-30 08:57:00,57.0,54.7,30.14,SSW,198,3.0,13.0,92,0.00,,,0.01,meteohub,2013-04-30 12:57:00,
2013-04-30 09:02:00,57.2,54.7,30.14,South,184,1.0,13.0,91,0.00,,,0.01,meteohub,2013-04-30 13:02:00,
2013-04-30 09:07:00,57.6,54.7,30.14,SSW,200,6.0,11.0,90,0.00,,,0.01,meteohub,2013-04-30 13:07:00,
2013-04-30 09:12:00,57.9,54.7,30.13,SSW,213,9.0,11.0,89,0.00,,,0.01,meteohub,2013-04-30 13:12:00,
2013-04-30 09:17:00,58.5,55.6,30.13,SSW,211,7.0,11.0,90,0.00,,,0.01,meteohub,2013-04-30 13:17:00,
2013-04-30 09:22:00,58.8,55.2,30.13,SSE,155,5.0,11.0,88,0.00,,,0.01,meteohub,2013-04-30 13:22:00,
2013-04-30 09:27:00,59.2,55.0,30.14,SSW,200,8.0,11.0,86,0.00,,,0.01,meteohub,2013-04-30 13:27:00,
2013-04-30 09:32:00,59.4,55.2,30.14,SSW,192,7.0,11.0,86,0.00,,,0.01,meteohub,2013-04-30 13:32:00,
2013-04-30 09:37:00,59.4,55.2,30.14,SW,222,4.0,16.0,86,0.00,,,0.01,meteohub,2013-04-30 13:37:00,
2013-04-30 09:42:00,59.7,55.2,30.14,SSW,207,4.0,16.0,85,0.00,,,0.01,meteohub,2013-04-30 13:42:00,
2013-04-30 09:47:00,59.9,55.4,30.14,SSW,203,4.0,11.0,85,0.00,,,0.01,meteohub,2013-04-30 13:47:00,
2013-04-30 09:52:00,60.1,55.2,30.14,SSW,196,5.0,11.0,84,0.00,,,0.01,meteohub,2013-04-30 13:52:00,
2013-04-30 09:57:00,60.1,55.2,30.14,SSW,192,9.0,12.0,84,0.00,,,0.01,meteohub,2013-04-30 13:57:00,
2013-04-30 10:02:00,60.3,55.0,30.14,SW,222,11.0,12.0,83,0.00,,,0.01,meteohub,2013-04-30 14:02:00,
2013-04-30 10:07:00,60.3,55.0,30.14,SSW,212,2.0,12.0,83,0.00,,,0.01,meteohub,2013-04-30 14:07:00,
2013-04-30 10:12:00,60.6,55.8,30.14,SW,228,9.0,12.0,84,0.00,,,0.01,meteohub,2013-04-30 14:12:00,
2013-04-30 10:17:00,61.0,55.4,30.14,South,184,8.0,12.0,82,0.00,,,0.01,meteohub,2013-04-30 14:17:00,
2013-04-30 10:22:00,61.2,55.6,30.14,WSW,255,4.0,12.0,82,0.00,,,0.01,meteohub,2013-04-30 14:22:00,
2013-04-30 10:27:00,61.5,55.6,30.14,South,181,3.0,11.0,81,0.00,,,0.01,meteohub,2013-04-30 14:27:00,
2013-04-30 10:32:00,62.1,56.1,30.14,SSE,161,4.0,11.0,81,0.00,,,0.01,meteohub,2013-04-30 14:32:00,
2013-04-30 10:37:00,62.4,56.1,30.13,SSW,205,10.0,11.0,80,0.00,,,0.01,meteohub,2013-04-30 14:37:00,
2013-04-30 10:42:00,63.0,56.3,30.12,SSW,196,7.0,11.0,79,0.00,,,0.01,meteohub,2013-04-30 14:42:00,
2013-04-30 10:47:00,63.1,56.1,30.13,South,175,8.0,14.0,78,0.00,,,0.01,meteohub,2013-04-30 14:47:00,
2013-04-30 10:52:00,63.3,55.9,30.13,ESE,111,5.0,14.0,77,0.00,,,0.01,meteohub,2013-04-30 14:52:00,
2013-04-30 10:57:00,63.7,56.3,30.14,SSE,163,2.0,14.0,77,0.00,,,0.01,meteohub,2013-04-30 14:57:00,
2013-04-30 11:02:00,63.3,55.6,30.14,SW,221,6.0,14.0,76,0.00,,,0.01,meteohub,2013-04-30 15:02:00,
2013-04-30 11:07:00,63.7,55.9,30.14,SSW,212,8.0,15.0,76,0.00,,,0.01,meteohub,2013-04-30 15:07:00,
2013-04-30 11:12:00,63.9,56.1,30.14,ESE,105,5.0,15.0,76,0.00,,,0.01,meteohub,2013-04-30 15:12:00,
2013-04-30 11:17:00,64.0,55.9,30.14,SSE,159,4.0,17.0,75,0.00,,,0.01,meteohub,2013-04-30 15:17:00,
2013-04-30 11:22:00,64.0,55.9,30.14,SW,227,6.0,17.0,75,0.00,,,0.01,meteohub,2013-04-30 15:22:00,
2013-04-30 11:27:00,64.6,56.1,30.14,SSW,211,10.0,13.0,74,0.00,,,0.01,meteohub,2013-04-30 15:27:00,
2013-04-30 11:32:00,64.9,56.5,30.14,SSW,211,6.0,13.0,74,0.00,,,0.01,meteohub,2013-04-30 15:32:00,
2013-04-30 11:37:00,65.1,56.3,30.14,SSW,211,8.0,13.0,73,0.00,,,0.01,meteohub,2013-04-30 15:37:00,
2013-04-30 11:42:00,65.1,56.3,30.14,South,188,5.0,13.0,73,0.00,,,0.01,meteohub,2013-04-30 15:42:00,
2013-04-30 11:48:00,65.1,55.9,30.14,SSW,200,6.0,14.0,72,0.00,,,0.01,meteohub,2013-04-30 15:48:00,
2013-04-30 11:53:00,65.7,55.9,30.15,SSW,195,8.0,14.0,71,0.00,,,0.01,meteohub,2013-04-30 15:53:00,
2013-04-30 11:58:00,65.5,55.4,30.15,SW,217,7.0,14.0,70,0.00,,,0.01,meteohub,2013-04-30 15:58:00,
2013-04-30 12:04:00,65.7,55.9,30.14,SSW,199,1.0,14.0,71,0.00,,,0.01,meteohub,2013-04-30 16:04:00,
2013-04-30 12:09:00,66.2,56.5,30.14,SW,217,3.0,14.0,71,0.00,,,0.01,meteohub,2013-04-30 16:09:00,
2013-04-30 12:14:00,66.7,55.8,30.14,SSW,213,14.0,14.0,68,0.00,,,0.01,meteohub,2013-04-30 16:14:00,
2013-04-30 12:19:00,66.4,55.9,30.14,SSE,153,5.0,14.0,69,0.00,,,0.01,meteohub,2013-04-30 16:19:00,
2013-04-30 12:25:00,66.6,55.6,30.14,SSW,198,3.0,14.0,68,0.00,,,0.01,meteohub,2013-04-30 16:25:00,
2013-04-30 12:30:00,66.6,55.6,30.14,SW,223,1.0,16.0,68,0.00,,,0.01,meteohub,2013-04-30 16:30:00,
2013-04-30 12:35:00,66.9,55.9,30.14,SSE,157,9.0,11.0,68,0.00,,,0.01,meteohub,2013-04-30 16:35:00,
2013-04-30 12:41:00,66.7,56.3,30.14,SW,217,9.0,11.0,69,0.00,,,0.01,meteohub,2013-04-30 16:41:00,
2013-04-30 12:46:00,66.7,55.8,30.15,SSW,207,2.0,13.0,68,0.00,,,0.01,meteohub,2013-04-30 16:46:00,
2013-04-30 12:51:00,66.9,56.8,30.15,SW,224,5.0,13.0,70,0.00,,,0.01,meteohub,2013-04-30 16:51:00,
2013-04-30 12:57:00,67.3,56.3,30.15,East,81,1.0,11.0,68,0.00,,,0.01,meteohub,2013-04-30 16:57:00,
2013-04-30 13:02:00,67.3,56.3,30.15,SE,144,9.0,11.0,68,0.00,,,0.01,meteohub,2013-04-30 17:02:00,
2013-04-30 13:07:00,67.8,56.1,30.15,SSW,209,12.0,14.0,66,0.00,,,0.01,meteohub,2013-04-30 17:07:00,
2013-04-30 13:12:00,67.8,55.6,30.16,WSW,240,2.0,14.0,65,0.00,,,0.01,meteohub,2013-04-30 17:12:00,
2013-04-30 13:17:00,68.4,56.1,30.16,SW,227,1.0,14.0,65,0.00,,,0.01,meteohub,2013-04-30 17:17:00,
2013-04-30 13:22:00,68.7,56.1,30.16,South,186,5.0,14.0,64,0.00,,,0.01,meteohub,2013-04-30 17:22:00,
2013-04-30 13:27:00,68.7,55.2,30.16,SSW,212,7.0,11.0,62,0.00,,,0.01,meteohub,2013-04-30 17:27:00,
2013-04-30 13:32:00,68.4,55.2,30.16,SE,132,0.0,11.0,63,0.00,,,0.01,meteohub,2013-04-30 17:32:00,
2013-04-30 13:37:00,68.5,55.4,30.16,SSW,211,6.0,16.0,63,0.00,,,0.01,meteohub,2013-04-30 17:37:00,
2013-04-30 13:42:00,68.7,55.6,30.16,South,180,2.0,16.0,63,0.00,,,0.01,meteohub,2013-04-30 17:42:00,
2013-04-30 13:47:00,69.1,55.0,30.16,ESE,113,4.0,10.0,61,0.00,,,0.01,meteohub,2013-04-30 17:47:00,
2013-04-30 13:52:00,69.1,55.0,30.15,South,176,4.0,10.0,61,0.00,,,0.01,meteohub,2013-04-30 17:52:00,
2013-04-30 13:57:00,69.3,56.5,30.15,West,266,3.0,10.0,64,0.00,,,0.01,meteohub,2013-04-30 17:57:00,
2013-04-30 14:02:00,69.6,55.0,30.15,SSE,152,6.0,10.0,60,0.00,,,0.01,meteohub,2013-04-30 18:02:00,
2013-04-30 14:07:00,70.0,56.3,30.15,SSW,201,0.0,8.0,62,0.00,,,0.01,meteohub,2013-04-30 18:07:00,
2013-04-30 14:12:00,70.0,55.0,30.15,SW,222,9.0,9.0,59,0.00,,,0.01,meteohub,2013-04-30 18:12:00,
2013-04-30 14:17:00,69.6,55.0,30.15,SSE,159,4.0,9.0,60,0.00,,,0.01,meteohub,2013-04-30 18:17:00,
2013-04-30 14:22:00,69.6,55.6,30.14,NNE,23,0.0,9.0,61,0.00,,,0.01,meteohub,2013-04-30 18:22:00,
2013-04-30 14:27:00,69.8,55.8,30.14,SE,142,0.0,14.0,61,0.00,,,0.01,meteohub,2013-04-30 18:27:00,
2013-04-30 14:32:00,70.0,55.0,30.14,SW,215,11.0,14.0,59,0.00,,,0.01,meteohub,2013-04-30 18:32:00,
2013-04-30 14:37:00,69.6,54.7,30.14,SSW,201,0.0,14.0,59,0.00,,,0.01,meteohub,2013-04-30 18:37:00,
2013-04-30 14:42:00,70.0,54.5,30.14,SSW,208,1.0,14.0,58,0.00,,,0.01,meteohub,2013-04-30 18:42:00,
2013-04-30 14:47:00,70.3,54.9,30.14,South,187,4.0,11.0,58,0.00,,,0.01,meteohub,2013-04-30 18:47:00,
2013-04-30 14:52:00,70.5,54.5,30.14,SSE,166,1.0,11.0,57,0.00,,,0.01,meteohub,2013-04-30 18:52:00,
2013-04-30 14:57:00,70.7,54.3,30.14,SSE,160,2.0,8.0,56,0.00,,,0.01,meteohub,2013-04-30 18:57:00,
2013-04-30 15:02:00,70.3,54.0,30.14,SSE,159,5.0,8.0,56,0.00,,,0.01,meteohub,2013-04-30 19:02:00,
2013-04-30 15:07:00,70.3,54.3,30.14,East,92,5.0,11.0,57,0.00,,,0.01,meteohub,2013-04-30 19:07:00,
2013-04-30 15:12:00,70.5,55.0,30.14,South,187,3.0,11.0,58,0.00,,,0.01,meteohub,2013-04-30 19:12:00,
2013-04-30 15:17:00,70.9,54.9,30.14,ENE,75,1.0,11.0,57,0.00,,,0.01,meteohub,2013-04-30 19:17:00,
2013-04-30 15:22:00,70.9,54.9,30.14,ESE,123,6.0,11.0,57,0.00,,,0.01,meteohub,2013-04-30 19:22:00,
2013-04-30 15:27:00,70.5,54.5,30.13,ESE,105,7.0,11.0,57,0.00,,,0.01,meteohub,2013-04-30 19:27:00,
2013-04-30 15:32:00,70.5,54.5,30.13,ESE,103,5.0,11.0,57,0.00,,,0.01,meteohub,2013-04-30 19:32:00,
2013-04-30 15:37:00,70.7,55.2,30.13,SE,140,4.0,11.0,58,0.00,,,0.01,meteohub,2013-04-30 19:37:00,
2013-04-30 15:42:00,71.1,53.6,30.12,SW,232,6.0,11.0,54,0.00,,,0.01,meteohub,2013-04-30 19:42:00,
2013-04-30 15:47:00,71.2,54.3,30.12,SSW,196,3.0,9.0,55,0.00,,,0.01,meteohub,2013-04-30 19:47:00,
2013-04-30 15:52:00,71.4,54.5,30.12,ESE,115,4.0,9.0,55,0.00,,,0.01,meteohub,2013-04-30 19:52:00,
2013-04-30 15:57:00,71.4,53.4,30.12,ESE,103,6.0,11.0,53,0.00,,,0.01,meteohub,2013-04-30 19:57:00,
2013-04-30 16:02:00,71.8,53.8,30.12,SE,142,0.0,11.0,53,0.00,,,0.01,meteohub,2013-04-30 20:02:00,
2013-04-30 16:07:00,71.8,54.3,30.11,South,186,4.0,13.0,54,0.00,,,0.01,meteohub,2013-04-30 20:07:00,
2013-04-30 16:12:00,72.0,54.0,30.10,SSW,213,3.0,13.0,53,0.00,,,0.01,meteohub,2013-04-30 20:12:00,
2013-04-30 16:17:00,72.1,54.1,30.10,SE,143,6.0,14.0,53,0.00,,,0.01,meteohub,2013-04-30 20:17:00,
2013-04-30 16:23:00,72.3,54.1,30.10,SSW,207,8.0,14.0,53,0.00,,,0.01,meteohub,2013-04-30 20:23:00,
2013-04-30 16:28:00,72.0,54.0,30.10,South,179,5.0,14.0,53,0.00,,,0.01,meteohub,2013-04-30 20:28:00,
2013-04-30 16:33:00,71.8,53.8,30.10,SSW,194,4.0,14.0,53,0.00,,,0.01,meteohub,2013-04-30 20:33:00,
2013-04-30 16:38:00,72.0,54.0,30.10,South,186,6.0,16.0,53,0.00,,,0.01,meteohub,2013-04-30 20:38:00,
2013-04-30 16:44:00,72.3,53.8,30.09,WSW,256,12.0,16.0,52,0.00,,,0.01,meteohub,2013-04-30 20:44:00,
2013-04-30 16:49:00,72.3,53.8,30.09,SW,214,13.0,16.0,52,0.00,,,0.01,meteohub,2013-04-30 20:49:00,
2013-04-30 16:54:00,72.3,52.7,30.09,South,186,7.0,21.0,50,0.00,,,0.01,meteohub,2013-04-30 20:54:00,
2013-04-30 17:00:00,72.3,52.2,30.09,SSW,207,4.0,21.0,49,0.00,,,0.01,meteohub,2013-04-30 21:00:00,
2013-04-30 17:05:00,72.1,51.4,30.09,SW,214,13.0,21.0,48,0.00,,,0.01,meteohub,2013-04-30 21:05:00,
2013-04-30 17:10:00,72.1,52.5,30.09,SSE,160,5.0,19.0,50,0.00,,,0.01,meteohub,2013-04-30 21:10:00,
2013-04-30 17:15:00,72.7,52.3,30.08,SW,236,4.0,15.0,49,0.00,,,0.01,meteohub,2013-04-30 21:15:00,
2013-04-30 17:21:00,72.9,52.5,30.08,SSW,197,7.0,15.0,49,0.00,,,0.01,meteohub,2013-04-30 21:21:00,
2013-04-30 17:26:00,73.0,52.7,30.08,South,183,4.0,12.0,49,0.00,,,0.01,meteohub,2013-04-30 21:26:00,
2013-04-30 17:31:00,73.0,53.2,30.08,SW,215,9.0,12.0,50,0.00,,,0.01,meteohub,2013-04-30 21:31:00,
2013-04-30 17:37:00,72.9,53.1,30.08,SE,139,5.0,15.0,50,0.00,,,0.01,meteohub,2013-04-30 21:37:00,
2013-04-30 17:42:00,73.0,52.7,30.08,SSW,211,17.0,17.0,49,0.00,,,0.01,meteohub,2013-04-30 21:42:00,
2013-04-30 17:47:00,72.9,52.0,30.08,SW,220,12.0,17.0,48,0.00,,,0.01,meteohub,2013-04-30 21:47:00,
2013-04-30 17:52:00,72.9,52.0,30.08,SW,219,11.0,17.0,48,0.00,,,0.01,meteohub,2013-04-30 21:52:00,
2013-04-30 17:57:00,72.9,52.5,30.08,SSW,211,4.0,19.0,49,0.00,,,0.01,meteohub,2013-04-30 21:57:00,
2013-04-30 18:02:00,72.9,52.5,30.08,SSE,167,8.0,19.0,49,0.00,,,0.01,meteohub,2013-04-30 22:02:00,
2013-04-30 18:07:00,72.7,52.9,30.08,SSW,195,7.0,21.0,50,0.00,,,0.01,meteohub,2013-04-30 22:07:00,
2013-04-30 18:12:00,72.9,52.5,30.08,SSW,207,6.0,21.0,49,0.00,,,0.01,meteohub,2013-04-30 22:12:00,
2013-04-30 18:17:00,72.9,53.1,30.07,WSW,250,5.0,17.0,50,0.00,,,0.01,meteohub,2013-04-30 22:17:00,
2013-04-30 18:22:00,72.9,52.5,30.08,South,181,15.0,17.0,49,0.00,,,0.01,meteohub,2013-04-30 22:22:00,
2013-04-30 18:27:00,72.9,53.1,30.08,SSE,157,6.0,15.0,50,0.00,,,0.01,meteohub,2013-04-30 22:27:00,
2013-04-30 18:32:00,72.9,52.5,30.08,SSW,203,10.0,15.0,49,0.00,,,0.01,meteohub,2013-04-30 22:32:00,
2013-04-30 18:37:00,72.7,52.9,30.08,SW,231,2.0,17.0,50,0.00,,,0.01,meteohub,2013-04-30 22:37:00,
2013-04-30 18:42:00,72.5,53.4,30.08,SSE,148,4.0,17.0,51,0.00,,,0.01,meteohub,2013-04-30 22:42:00,
2013-04-30 18:47:00,72.7,53.4,30.08,South,187,4.0,17.0,51,0.00,,,0.01,meteohub,2013-04-30 22:47:00,
2013-04-30 18:52:00,72.7,54.0,30.08,SW,225,4.0,17.0,52,0.00,,,0.01,meteohub,2013-04-30 22:52:00,
2013-04-30 18:57:00,72.5,53.4,30.07,West,273,3.0,14.0,51,0.00,,,0.01,meteohub,2013-04-30 22:57:00,
2013-04-30 19:02:00,72.3,53.2,30.08,SSW,213,7.0,14.0,51,0.00,,,0.01,meteohub,2013-04-30 23:02:00,
2013-04-30 19:07:00,72.3,53.2,30.08,SSW,194,4.0,17.0,51,0.00,,,0.01,meteohub,2013-04-30 23:07:00,
2013-04-30 19:12:00,72.3,53.2,30.08,SSW,200,7.0,17.0,51,0.00,,,0.01,meteohub,2013-04-30 23:12:00,
2013-04-30 19:17:00,72.1,53.1,30.08,SW,221,4.0,15.0,51,0.00,,,0.01,meteohub,2013-04-30 23:17:00,
2013-04-30 19:22:00,72.1,53.1,30.08,SSW,196,1.0,15.0,51,0.00,,,0.01,meteohub,2013-04-30 23:22:00,
2013-04-30 19:27:00,72.0,52.9,30.08,South,171,11.0,15.0,51,0.00,,,0.01,meteohub,2013-04-30 23:27:00,
2013-04-30 19:32:00,72.0,52.9,30.08,South,177,6.0,15.0,51,0.00,,,0.01,meteohub,2013-04-30 23:32:00,
2013-04-30 19:37:00,71.8,53.2,30.09,SSW,211,8.0,13.0,52,0.00,,,0.01,meteohub,2013-04-30 23:37:00,
2013-04-30 19:42:00,71.6,53.1,30.09,SE,146,0.0,13.0,52,0.00,,,0.01,meteohub,2013-04-30 23:42:00,
2013-04-30 19:47:00,71.4,52.9,30.09,SSW,197,5.0,11.0,52,0.00,,,0.01,meteohub,2013-04-30 23:47:00,
2013-04-30 19:52:00,71.2,52.7,30.09,SSW,206,6.0,11.0,52,0.00,,,0.01,meteohub,2013-04-30 23:52:00,
2013-04-30 19:57:00,70.9,52.9,30.09,SE,140,7.0,13.0,53,0.00,,,0.01,meteohub,2013-04-30 23:57:00,
2013-04-30 20:03:00,70.7,53.2,30.09,SSW,207,1.0,13.0,54,0.00,,,0.01,meteohub,2013-05-01 00:03:00,
2013-04-30 20:08:00,70.5,53.1,30.09,SSW,202,5.0,14.0,54,0.00,,,0.01,meteohub,2013-05-01 00:08:00,
2013-04-30 20:13:00,70.3,53.4,30.09,SSW,195,7.0,14.0,55,0.00,,,0.00,meteohub,2013-05-01 00:13:00,
2013-04-30 20:18:00,70.0,53.6,30.09,South,178,4.0,10.0,56,0.00,,,0.00,meteohub,2013-05-01 00:18:00,
2013-04-30 20:24:00,69.8,53.4,30.09,SSW,203,5.0,10.0,56,0.00,,,0.00,meteohub,2013-05-01 00:24:00,
2013-04-30 20:29:00,69.6,53.2,30.10,SSW,206,4.0,11.0,56,0.00,,,0.00,meteohub,2013-05-01 00:29:00,
2013-04-30 20:34:00,69.4,53.6,30.10,SSE,165,4.0,12.0,57,0.00,,,0.00,meteohub,2013-05-01 00:34:00,
2013-04-30 20:40:00,69.1,53.2,30.11,SSW,203,2.0,12.0,57,0.00,,,0.00,meteohub,2013-05-01 00:40:00,
2013-04-30 20:45:00,68.9,53.1,30.11,SSW,206,4.0,12.0,57,0.00,,,0.00,meteohub,2013-05-01 00:45:00,
2013-04-30 20:50:00,68.9,53.1,30.11,South,182,4.0,12.0,57,0.00,,,0.00,meteohub,2013-05-01 00:50:00,
2013-04-30 20:55:00,68.7,53.4,30.12,SSE,163,4.0,15.0,58,0.00,,,0.00,meteohub,2013-05-01 00:55:00,
2013-04-30 21:01:00,68.5,53.6,30.12,SW,214,0.0,15.0,59,0.00,,,0.00,meteohub,2013-05-01 01:01:00,
2013-04-30 21:06:00,68.2,53.2,30.12,SSW,211,2.0,8.0,59,0.00,,,0.00,meteohub,2013-05-01 01:06:00,
2013-04-30 21:11:00,67.8,53.4,30.12,SSW,192,4.0,7.0,60,0.00,,,0.00,meteohub,2013-05-01 01:11:00,
2013-04-30 21:17:00,67.6,53.2,30.12,SSW,202,5.0,9.0,60,0.00,,,0.00,meteohub,2013-05-01 01:17:00,
2013-04-30 21:22:00,67.5,53.1,30.13,SW,215,6.0,10.0,60,0.00,,,0.00,meteohub,2013-05-01 01:22:00,
2013-04-30 21:27:00,67.3,53.4,30.13,SE,128,5.0,12.0,61,0.00,,,0.00,meteohub,2013-05-01 01:27:00,
2013-04-30 21:32:00,66.9,53.1,30.13,SSW,201,12.0,12.0,61,0.00,,,0.00,meteohub,2013-05-01 01:32:00,
2013-04-30 21:37:00,66.9,53.1,30.14,South,173,5.0,15.0,61,0.00,,,0.00,meteohub,2013-05-01 01:37:00,
2013-04-30 21:42:00,66.7,52.9,30.14,South,180,3.0,15.0,61,0.00,,,0.00,meteohub,2013-05-01 01:42:00,
2013-04-30 21:47:00,66.7,53.2,30.14,SSE,162,7.0,15.0,62,0.00,,,0.00,meteohub,2013-05-01 01:47:00,
2013-04-30 21:52:00,66.4,52.9,30.15,SW,219,8.0,14.0,62,0.00,,,0.00,meteohub,2013-05-01 01:52:00,
2013-04-30 21:57:00,66.2,52.9,30.15,SW,226,4.0,14.0,62,0.00,,,0.00,meteohub,2013-05-01 01:57:00,
2013-04-30 22:02:00,66.0,52.7,30.15,South,172,4.0,14.0,62,0.00,,,0.00,meteohub,2013-05-01 02:02:00,
2013-04-30 22:07:00,65.8,52.5,30.15,SW,225,6.0,13.0,62,0.00,,,0.00,meteohub,2013-05-01 02:07:00,
2013-04-30 22:12:00,65.7,52.7,30.15,SSE,163,6.0,14.0,63,0.00,,,0.00,meteohub,2013-05-01 02:12:00,
2013-04-30 22:17:00,65.5,52.5,30.15,South,185,2.0,14.0,63,0.00,,,0.00,meteohub,2013-05-01 02:17:00,
2013-04-30 22:22:00,65.5,52.5,30.15,SSW,211,5.0,14.0,63,0.00,,,0.00,meteohub,2013-05-01 02:22:00,
2013-04-30 22:27:00,65.1,52.7,30.15,SSW,211,6.0,13.0,64,0.00,,,0.00,meteohub,2013-05-01 02:27:00,
2013-04-30 22:32:00,64.9,52.9,30.15,South,180,4.0,12.0,65,0.00,,,0.00,meteohub,2013-05-01 02:32:00,
2013-04-30 22:37:00,64.8,52.7,30.16,SW,236,9.0,13.0,65,0.00,,,0.00,meteohub,2013-05-01 02:37:00,
2013-04-30 22:43:00,64.6,52.5,30.16,SSW,195,4.0,15.0,65,0.00,,,0.00,meteohub,2013-05-01 02:43:00,
2013-04-30 22:48:00,64.4,52.9,30.16,SSW,196,10.0,15.0,66,0.00,,,0.00,meteohub,2013-05-01 02:48:00,
2013-04-30 22:53:00,64.2,52.7,30.16,SSW,212,3.0,13.0,66,0.00,,,0.00,meteohub,2013-05-01 02:53:00,
2013-04-30 22:59:00,64.0,52.5,30.17,SE,134,6.0,13.0,66,0.00,,,0.00,meteohub,2013-05-01 02:59:00,
2013-04-30 23:04:00,63.9,52.7,30.17,South,170,7.0,13.0,67,0.00,,,0.00,meteohub,2013-05-01 03:04:00,
2013-04-30 23:09:00,63.7,52.2,30.17,SSW,198,5.0,12.0,66,0.00,,,0.00,meteohub,2013-05-01 03:09:00,
2013-04-30 23:14:00,63.5,52.3,30.17,SE,140,6.0,13.0,67,0.00,,,0.00,meteohub,2013-05-01 03:14:00,
2013-04-30 23:20:00,63.3,52.2,30.17,South,180,4.0,13.0,67,0.00,,,0.00,meteohub,2013-05-01 03:20:00,
2013-04-30 23:25:00,63.1,52.0,30.17,SSW,198,4.0,13.0,67,0.00,,,0.00,meteohub,2013-05-01 03:25:00,
2013-04-30 23:30:00,63.0,52.2,30.17,SSW,210,6.0,11.0,68,0.00,,,0.00,meteohub,2013-05-01 03:30:00,
2013-04-30 23:36:00,62.8,52.0,30.16,SSW,211,8.0,18.0,68,0.00,,,0.00,meteohub,2013-05-01 03:36:00,
2013-04-30 23:41:00,62.6,52.3,30.17,SSE,164,6.0,18.0,69,0.00,,,0.00,meteohub,2013-05-01 03:41:00,
2013-04-30 23:46:00,62.4,52.2,30.17,South,169,6.0,17.0,69,0.00,,,0.00,meteohub,2013-05-01 03:46:00,
2013-04-30 23:51:00,62.2,52.0,30.17,SW,229,6.0,15.0,69,0.00,,,0.00,meteohub,2013-05-01 03:51:00,
2013-04-30 23:56:00,62.1,51.8,30.17,South,176,5.0,15.0,69,0.00,,,0.00,meteohub,2013-05-01 03:56:00,